Terminal Aerodrome Forecast
Issued by NWS Wakefield, VA

Home | Current Version | Previous Version | Text Only | Print | Product List | Glossary On
Versions: 1 2 3 4 5 6 7 8 9 10 11 12 13 14 15 16 17 18 19 20 21
625
FTUS41 KAKQ 240548
TAFORF
TAF
KORF 240548Z 2406/2506 05012G20KT P6SM OVC007
     FM241200 05017G25KT 4SM RA OVC007
     FM241800 06015G24KT 2SM -RA OVC006
     FM242000 06015G24KT 4SM -RA OVC010
     FM250000 07015G24KT 4SM RA OVC008
     FM250300 07015G24KT 4SM RA OVC007=

USA.gov is the U.S. government's official web portal to all federal, state and local government web resources and services.